Time;durP1;ratioP1;P1;durP2;ratioP2;P2;SDS_P1;SDS_P2;PMS_P1;PMS_P2;Temp;Humidity;BMP_temperature;BMP_pressure;BME280_temperature;BME280_humidity;BME280_pressure;Samples;Min_cycle;Max_cycle;Signal;HPM_P1;HPM_P2
2022/10/08 00:00:06;;;;;;;4.70;2.80;;;15.30;99.90;;;;;;5072659;28;20098;-72
2022/10/08 00:02:32;;;;;;;5.75;3.17;;;15.20;99.90;;;;;;5070481;28;20037;-73
2022/10/08 00:04:58;;;;;;;7.43;2.78;;;15.10;99.90;;;;;;5064990;28;20033;-72
2022/10/08 00:07:24;;;;;;;7.22;2.90;;;15.00;99.90;;;;;;5052737;28;20045;-74
2022/10/08 00:09:50;;;;;;;3.95;2.40;;;14.90;99.90;;;;;;5056974;28;20056;-71
2022/10/08 00:12:16;;;;;;;8.10;3.15;;;14.80;99.90;;;;;;5057563;28;20500;-71
2022/10/08 00:14:42;;;;;;;4.18;2.50;;;;;;;;;;5057843;28;20504;-75
2022/10/08 00:17:07;;;;;;;7.47;2.90;;;15.00;99.90;;;;;;5057892;28;20045;-72
2022/10/08 00:19:33;;;;;;;4.72;2.55;;;14.80;99.90;;;;;;5060850;28;20113;-76
2022/10/08 00:21:59;;;;;;;4.28;2.53;;;14.80;99.90;;;;;;5077854;28;20079;-76
2022/10/08 00:24:26;;;;;;;5.95;2.70;;;14.80;99.90;;;;;;5076896;28;20072;-72
2022/10/08 00:26:52;;;;;;;6.70;2.90;;;14.80;99.90;;;;;;5076357;28;20074;-75
2022/10/08 00:29:20;;;;;;;3.25;2.42;;;14.90;99.90;;;;;;5076283;28;20071;-75
2022/10/08 00:31:48;;;;;;;4.65;2.75;;;15.10;99.90;;;;;;5076225;28;20097;-74
2022/10/08 00:34:17;;;;;;;5.93;2.80;;;15.20;99.90;;;;;;5076609;28;20040;-75
2022/10/08 00:36:43;;;;;;;5.20;2.72;;;15.30;99.90;;;;;;5077492;28;20581;-75
2022/10/08 00:39:15;;;;;;;6.28;2.88;;;15.30;99.90;;;;;;5077096;28;20048;-72
2022/10/08 00:41:44;;;;;;;7.75;2.67;;;15.50;99.90;;;;;;5076114;28;20611;-72
2022/10/08 00:44:50;;;;;;;7.18;2.85;;;15.50;99.90;;;;;;5077192;28;20054;-73
2022/10/08 00:47:31;;;;;;;4.32;2.50;;;15.40;99.90;;;;;;5077078;28;20404;-72
2022/10/08 00:50:00;;;;;;;4.18;2.38;;;15.30;99.90;;;;;;5076111;28;20032;-72
2022/10/08 00:52:29;;;;;;;6.28;2.90;;;15.10;99.90;;;;;;5075979;28;20058;-73
2022/10/08 00:54:56;;;;;;;6.38;2.13;;;15.10;99.90;;;;;;5075872;28;20033;-76
2022/10/08 00:57:22;;;;;;;3.72;2.60;;;15.10;99.90;;;;;;5075848;28;20487;-76
2022/10/08 00:59:48;;;;;;;3.47;2.50;;;15.10;99.90;;;;;;5076925;28;20051;-72
2022/10/08 01:02:14;;;;;;;4.70;2.78;;;15.10;99.90;;;;;;5077134;28;20075;-76
2022/10/08 01:04:42;;;;;;;7.28;2.35;;;15.10;99.90;;;;;;5076992;28;20099;-72
2022/10/08 01:07:31;;;;;;;6.30;2.65;;;15.10;99.90;;;;;;5076878;28;20119;-75
2022/10/08 01:10:14;;;;;;;4.45;2.47;;;14.90;99.90;;;;;;5075456;28;20501;-72
2022/10/08 01:12:51;;;;;;;4.00;2.50;;;14.90;99.90;;;;;;5076707;28;20029;-72
2022/10/08 01:15:48;;;;;;;5.63;2.55;;;14.90;99.90;;;;;;5076780;28;20416;-73
2022/10/08 01:18:32;;;;;;;6.47;2.63;;;14.90;99.90;;;;;;5074385;28;20048;-77
2022/10/08 01:21:04;;;;;;;4.45;3.13;;;15.00;99.90;;;;;;5076556;28;20048;-76
2022/10/08 01:23:59;;;;;;;5.47;2.72;;;15.00;99.90;;;;;;5075183;28;20036;-77
2022/10/08 01:26:47;;;;;;;6.28;3.38;;;15.10;99.90;;;;;;5061320;28;20150;-75
2022/10/08 01:29:15;;;;;;;8.40;3.80;;;15.20;99.90;;;;;;5076569;28;20123;-72
2022/10/08 01:32:05;;;;;;;7.70;3.72;;;15.30;99.90;;;;;;5076504;28;20037;-73
2022/10/08 01:34:46;;;;;;;10.15;3.85;;;15.40;99.90;;;;;;5074518;28;20044;-74
2022/10/08 01:37:35;;;;;;;7.40;3.75;;;15.40;99.90;;;;;;5076516;28;20035;-75
2022/10/08 01:40:08;;;;;;;5.15;3.28;;;15.30;99.90;;;;;;5075038;28;20542;-76
2022/10/08 01:42:38;;;;;;;6.93;3.47;;;15.40;99.90;;;;;;5076513;28;20546;-72
2022/10/08 01:45:09;;;;;;;6.43;3.78;;;15.50;99.90;;;;;;5074522;28;20113;-75
2022/10/08 01:47:39;;;;;;;9.57;3.72;;;15.50;99.90;;;;;;5074672;28;20029;-75
2022/10/08 01:50:32;;;;;;;6.60;3.60;;;15.50;99.90;;;;;;5074787;28;20162;-76
2022/10/08 01:53:03;;;;;;;5.55;3.78;;;15.50;99.90;;;;;;5074788;28;20494;-72
2022/10/08 01:55:41;;;;;;;8.70;3.90;;;15.50;99.90;;;;;;5076014;28;20064;-72
2022/10/08 01:58:27;;;;;;;7.85;3.50;;;15.60;99.90;;;;;;5076137;28;20040;-72
2022/10/08 02:00:55;;;;;;;12.80;3.53;;;15.70;99.90;;;;;;5074576;28;20052;-72
2022/10/08 02:03:21;;;;;;;10.65;3.78;;;15.50;99.90;;;;;;5075826;28;20433;-75
2022/10/08 02:05:50;;;;;;;10.98;3.58;;;15.50;99.90;;;;;;5075728;28;20048;-72
2022/10/08 02:08:16;;;;;;;8.07;3.70;;;15.50;99.90;;;;;;5076026;28;20040;-75
2022/10/08 02:10:42;;;;;;;8.27;4.13;;;15.50;99.90;;;;;;5075795;28;20044;-75
2022/10/08 02:13:10;;;;;;;9.32;4.30;;;15.40;99.90;;;;;;5075687;28;20044;-75
2022/10/08 02:16:05;;;;;;;13.25;4.60;;;15.40;99.90;;;;;;5075783;28;20035;-72
2022/10/08 02:18:46;;;;;;;15.65;5.00;;;15.40;99.90;;;;;;5075536;28;20044;-76
2022/10/08 02:21:21;;;;;;;7.70;4.35;;;15.40;99.90;;;;;;5075576;28;20052;-73
2022/10/08 02:24:25;;;;;;;11.50;3.80;;;15.30;99.90;;;;;;5074150;28;20055;-72
2022/10/08 02:26:54;;;;;;;6.72;3.90;;;15.10;99.90;;;;;;5062632;28;20527;-75
2022/10/08 02:29:29;;;;;;;9.68;3.65;;;15.10;99.90;;;;;;5075144;28;20067;-72
2022/10/08 02:32:05;;;;;;;7.00;3.83;;;15.30;99.90;;;;;;5075372;28;20097;-72
2022/10/08 02:34:36;;;;;;;9.30;4.18;;;15.20;99.90;;;;;;5075215;28;20049;-76
2022/10/08 02:37:23;;;;;;;9.00;4.18;;;15.20;99.90;;;;;;5074966;28;20044;-73
2022/10/08 02:40:11;;;;;;;5.45;3.33;;;15.30;99.90;;;;;;5073725;28;20071;-72
2022/10/08 02:42:41;;;;;;;9.45;4.10;;;15.40;99.90;;;;;;5073700;28;20040;-76
2022/10/08 02:45:09;;;;;;;8.48;4.28;;;15.40;99.90;;;;;;5074981;28;20085;-75
2022/10/08 02:47:37;;;;;;;7.38;4.20;;;15.40;99.90;;;;;;5075108;28;20037;-72
2022/10/08 02:50:09;;;;;;;9.82;3.97;;;15.50;99.90;;;;;;5074894;28;20502;-76
2022/10/08 02:52:38;;;;;;;9.60;3.78;;;15.40;99.90;;;;;;5074719;28;20074;-76
2022/10/08 02:55:18;;;;;;;7.43;3.95;;;15.40;99.90;;;;;;5074942;28;20064;-72
2022/10/08 02:57:50;;;;;;;6.50;3.13;;;15.50;99.90;;;;;;5073372;28;20118;-76
2022/10/08 03:00:16;;;;;;;8.43;3.42;;;15.50;99.90;;;;;;5074709;28;20388;-73
2022/10/08 03:03:00;;;;;;;9.43;3.28;;;15.40;99.90;;;;;;5074656;28;20036;-76
2022/10/08 03:05:28;;;;;;;6.65;3.60;;;15.20;99.90;;;;;;5074519;28;20036;-73
2022/10/08 03:07:55;;;;;;;8.38;3.47;;;15.10;99.90;;;;;;5074357;28;20540;-76
2022/10/08 03:10:24;;;;;;;6.05;3.28;;;15.10;99.90;;;;;;5073016;28;20028;-76
2022/10/08 03:12:52;;;;;;;10.23;3.53;;;15.00;99.90;;;;;;5074307;28;20079;-72
2022/10/08 03:15:18;;;;;;;7.90;3.15;;;15.00;99.90;;;;;;5073088;28;20119;-73
2022/10/08 03:17:46;;;;;;;7.22;3.28;;;14.90;99.90;;;;;;5073529;28;20517;-72
2022/10/08 03:20:12;;;;;;;5.10;2.90;;;14.90;99.90;;;;;;5072962;28;20162;-73
2022/10/08 03:22:39;;;;;;;6.57;3.25;;;15.00;99.90;;;;;;5074157;28;20064;-76
2022/10/08 03:25:05;;;;;;;8.95;3.08;;;15.00;99.90;;;;;;5074200;28;20028;-72
2022/10/08 03:27:30;;;;;;;5.05;3.53;;;15.00;99.90;;;;;;5073298;28;20034;-73
2022/10/08 03:29:56;;;;;;;6.38;4.03;;;15.00;99.90;;;;;;5074225;28;20075;-74
2022/10/08 03:32:23;;;;;;;5.78;3.05;;;14.90;99.90;;;;;;5074167;28;20032;-72
2022/10/08 03:34:49;;;;;;;5.88;3.17;;;15.00;99.90;;;;;;5074311;28;20078;-73
2022/10/08 03:37:14;;;;;;;8.55;3.15;;;15.00;99.90;;;;;;5073958;28;20060;-73
2022/10/08 03:39:42;;;;;;;10.15;3.63;;;15.00;99.90;;;;;;5074500;28;20055;-72
2022/10/08 03:42:08;;;;;;;8.23;3.40;;;15.10;99.90;;;;;;5072175;28;20086;-75
2022/10/08 03:44:34;;;;;;;8.02;3.17;;;15.10;99.90;;;;;;5074094;28;20036;-76
2022/10/08 03:47:00;;;;;;;6.35;3.55;;;15.00;99.90;;;;;;5073887;28;20041;-75
2022/10/08 03:49:26;;;;;;;13.88;3.10;;;14.80;99.90;;;;;;5073730;28;20492;-75
2022/10/08 03:51:54;;;;;;;8.82;3.15;;;;;;;;;;5072424;28;20161;-71
2022/10/08 03:54:20;;;;;;;8.18;3.00;;;14.60;99.90;;;;;;5073410;28;20048;-73
2022/10/08 03:56:46;;;;;;;12.18;3.17;;;14.60;99.90;;;;;;5073772;28;20037;-74
2022/10/08 03:59:11;;;;;;;4.78;2.88;;;14.80;99.90;;;;;;5073903;28;20413;-72
2022/10/08 04:01:37;;;;;;;13.05;4.05;;;14.60;99.90;;;;;;5074014;28;20094;-75
2022/10/08 04:04:03;;;;;;;9.25;3.53;;;14.70;99.90;;;;;;5072570;28;20097;-76
2022/10/08 04:06:29;;;;;;;7.30;3.13;;;14.60;99.90;;;;;;5070715;28;20076;-72
2022/10/08 04:08:59;;;;;;;7.60;3.08;;;14.60;99.90;;;;;;5062934;28;20601;-72
2022/10/08 04:11:27;;;;;;;7.93;3.67;;;14.60;99.90;;;;;;5052609;28;20155;-77
2022/10/08 04:13:54;;;;;;;6.90;4.03;;;14.60;99.90;;;;;;5053548;28;20577;-73
2022/10/08 04:16:19;;;;;;;9.65;3.50;;;14.60;99.90;;;;;;5053763;28;20049;-73
2022/10/08 04:18:46;;;;;;;6.10;3.25;;;14.70;99.90;;;;;;5052289;28;20401;-72
2022/10/08 04:21:14;;;;;;;6.25;3.30;;;14.70;99.90;;;;;;5053593;28;20052;-76
2022/10/08 04:23:42;;;;;;;12.02;3.80;;;14.70;99.90;;;;;;5053455;28;20040;-75
2022/10/08 04:26:09;;;;;;;5.30;3.00;;;14.80;99.90;;;;;;5053621;28;20175;-75
2022/10/08 04:28:37;;;;;;;14.07;3.20;;;14.80;99.90;;;;;;5052333;28;20037;-72
2022/10/08 04:31:10;;;;;;;6.18;3.35;;;14.90;99.90;;;;;;5052600;28;20040;-74
2022/10/08 04:33:36;;;;;;;10.38;3.40;;;14.90;99.90;;;;;;5053343;28;20536;-72
2022/10/08 04:36:11;;;;;;;9.25;3.10;;;;;;;;;;5053512;28;20512;-71
2022/10/08 04:38:37;;;;;;;7.38;3.17;;;15.10;99.90;;;;;;5053248;28;20052;-71
2022/10/08 04:41:04;;;;;;;13.88;3.65;;;;;;;;;;5053539;28;20128;-73
2022/10/08 04:43:30;;;;;;;9.77;3.03;;;15.40;99.90;;;;;;5053555;28;20048;-73
2022/10/08 04:45:57;;;;;;;6.82;3.10;;;;;;;;;;5051966;28;20037;-74
2022/10/08 04:48:23;;;;;;;6.28;3.22;;;15.00;99.90;;;;;;5053202;28;20148;-73
2022/10/08 04:50:57;;;;;;;5.45;3.40;;;14.70;99.90;;;;;;5053405;28;20536;-77
2022/10/08 04:53:24;;;;;;;7.00;3.55;;;14.80;99.90;;;;;;5054642;28;20519;-76
2022/10/08 04:55:52;;;;;;;7.05;3.08;;;;;;;;;;5055905;28;20037;-75
2022/10/08 04:58:20;;;;;;;5.38;3.22;;;;;;;;;;5057162;28;20048;-72
2022/10/08 05:00:46;;;;;;;7.65;3.30;;;14.90;99.90;;;;;;5056827;28;20052;-74
2022/10/08 05:03:12;;;;;;;5.95;3.20;;;14.90;99.90;;;;;;5055855;28;20128;-72
2022/10/08 05:05:40;;;;;;;7.88;2.97;;;14.80;99.90;;;;;;5056891;28;20037;-75
2022/10/08 05:08:06;;;;;;;3.83;3.03;;;14.70;99.90;;;;;;5055477;28;20033;-72
2022/10/08 05:10:31;;;;;;;9.30;3.65;;;15.10;99.90;;;;;;5056722;28;20370;-72
2022/10/08 05:12:57;;;;;;;8.85;3.47;;;15.00;99.90;;;;;;5056743;28;20041;-72
2022/10/08 05:15:23;;;;;;;7.20;2.95;;;15.40;99.90;;;;;;5056615;28;20033;-72
2022/10/08 05:17:49;;;;;;;12.52;3.08;;;14.90;99.90;;;;;;5055633;28;20435;-72
2022/10/08 05:20:14;;;;;;;7.80;3.08;;;15.60;99.90;;;;;;5056528;28;20072;-77
2022/10/08 05:22:40;;;;;;;7.18;3.17;;;15.10;99.90;;;;;;5055773;28;20029;-74
2022/10/08 05:25:06;;;;;;;5.20;3.13;;;15.10;99.90;;;;;;5056612;28;20408;-77
2022/10/08 05:27:32;;;;;;;4.85;2.90;;;15.10;99.90;;;;;;5055148;28;20489;-74
2022/10/08 05:29:58;;;;;;;9.52;2.67;;;14.90;99.90;;;;;;5055443;28;20045;-72
2022/10/08 05:32:24;;;;;;;6.35;2.80;;;14.70;99.90;;;;;;5054051;28;20036;-75
2022/10/08 05:34:49;;;;;;;8.13;3.10;;;14.80;99.90;;;;;;5054740;28;20056;-74
2022/10/08 05:37:15;;;;;;;6.65;2.55;;;14.90;99.90;;;;;;5055023;28;20033;-75
2022/10/08 05:39:41;;;;;;;6.53;3.22;;;15.20;99.90;;;;;;5056065;28;20048;-76
2022/10/08 05:42:07;;;;;;;8.57;2.58;;;15.00;99.90;;;;;;5056603;28;20033;-73
2022/10/08 05:44:32;;;;;;;4.53;2.90;;;15.00;99.90;;;;;;5076070;28;20037;-73
2022/10/08 05:46:58;;;;;;;7.93;3.05;;;15.00;99.90;;;;;;5074798;28;20059;-76
2022/10/08 05:49:24;;;;;;;5.88;2.95;;;15.00;99.90;;;;;;5075055;28;20415;-72
2022/10/08 05:51:50;;;;;;;8.32;2.70;;;15.00;99.90;;;;;;5076236;28;20361;-72
2022/10/08 05:54:17;;;;;;;9.90;3.03;;;15.00;99.90;;;;;;5074789;28;20071;-75
2022/10/08 05:56:43;;;;;;;6.32;2.80;;;15.00;99.90;;;;;;5075849;28;20044;-73
2022/10/08 05:59:18;;;;;;;5.63;2.67;;;14.90;99.90;;;;;;5076133;28;20063;-76
2022/10/08 06:01:44;;;;;;;5.85;2.88;;;14.90;99.90;;;;;;5075987;28;20075;-76
2022/10/08 06:04:10;;;;;;;6.15;3.40;;;15.00;99.90;;;;;;5075453;28;20454;-74
2022/10/08 06:06:37;;;;;;;6.53;2.72;;;15.10;99.90;;;;;;5075782;28;20040;-74
2022/10/08 06:09:04;;;;;;;8.25;3.42;;;15.20;99.90;;;;;;5074438;28;20392;-77
2022/10/08 06:11:32;;;;;;;9.45;3.47;;;15.20;99.90;;;;;;5075500;28;20040;-75
2022/10/08 06:14:00;;;;;;;5.25;3.00;;;15.30;99.90;;;;;;5075587;28;20051;-74
2022/10/08 06:16:27;;;;;;;14.10;4.45;;;15.30;99.90;;;;;;5075458;28;20040;-74
2022/10/08 06:18:52;;;;;;;4.88;3.33;;;15.20;99.90;;;;;;5075347;28;20044;-76
2022/10/08 06:21:21;;;;;;;5.78;2.83;;;15.20;99.90;;;;;;5075497;28;20043;-74
2022/10/08 06:23:53;;;;;;;4.70;2.63;;;15.20;99.90;;;;;;5073867;28;20039;-76
2022/10/08 06:26:21;;;;;;;6.07;3.17;;;15.30;99.90;;;;;;5075211;28;20526;-74
2022/10/08 06:28:47;;;;;;;7.80;3.47;;;15.30;99.90;;;;;;5074072;28;20028;-74
2022/10/08 06:31:13;;;;;;;7.53;3.05;;;15.40;99.90;;;;;;5074144;28;20407;-74
2022/10/08 06:33:39;;;;;;;6.82;3.28;;;15.40;99.90;;;;;;5075191;28;20044;-77
2022/10/08 06:36:26;;;;;;;5.90;2.83;;;15.50;99.90;;;;;;5073791;28;20131;-74
2022/10/08 06:38:58;;;;;;;5.95;2.88;;;15.50;99.90;;;;;;5073157;28;20040;-74
2022/10/08 06:41:26;;;;;;;3.67;2.97;;;15.50;99.90;;;;;;5073790;28;20042;-77
2022/10/08 06:43:53;;;;;;;5.80;3.00;;;15.40;99.90;;;;;;5075055;28;20119;-77
2022/10/08 06:46:19;;;;;;;6.65;2.88;;;15.50;99.90;;;;;;5074865;28;20488;-74
2022/10/08 06:48:45;;;;;;;8.18;3.00;;;15.50;99.90;;;;;;5074780;28;20032;-74
2022/10/08 06:51:13;;;;;;;5.47;3.38;;;15.60;99.90;;;;;;5074878;28;20032;-75
2022/10/08 06:53:40;;;;;;;5.30;2.88;;;15.60;99.90;;;;;;5074935;28;20127;-74
2022/10/08 06:56:09;;;;;;;6.18;3.00;;;15.60;99.90;;;;;;5073496;28;20044;-75
2022/10/08 06:58:36;;;;;;;4.50;2.85;;;15.60;99.90;;;;;;5073447;28;20028;-74
2022/10/08 07:01:05;;;;;;;14.20;4.50;;;15.70;99.90;;;;;;5074749;28;20048;-75
2022/10/08 07:03:31;;;;;;;5.55;2.53;;;15.70;99.90;;;;;;5073266;28;20503;-74
2022/10/08 07:06:00;;;;;;;7.97;2.42;;;15.60;99.90;;;;;;5074540;28;20037;-74
2022/10/08 07:08:27;;;;;;;6.68;2.38;;;15.60;99.90;;;;;;5073614;28;20040;-76
2022/10/08 07:10:53;;;;;;;11.07;2.65;;;15.60;99.90;;;;;;5074426;28;20043;-74
2022/10/08 07:13:19;;;;;;;9.80;2.85;;;15.50;99.90;;;;;;5073090;28;20419;-75
2022/10/08 07:15:45;;;;;;;5.82;2.47;;;15.40;99.90;;;;;;5074161;28;20043;-76
2022/10/08 07:18:11;;;;;;;8.07;2.50;;;15.30;99.90;;;;;;5073880;28;20040;-74
2022/10/08 07:20:38;;;;;;;4.32;2.50;;;15.30;99.90;;;;;;5074312;28;20411;-74
2022/10/08 07:23:04;;;;;;;4.95;2.67;;;15.20;99.90;;;;;;5073390;28;20102;-77
2022/10/08 07:25:30;;;;;;;4.13;2.35;;;15.20;99.90;;;;;;5074282;28;20040;-77
2022/10/08 07:27:56;;;;;;;6.47;2.20;;;15.20;99.90;;;;;;5074301;28;20514;-74
2022/10/08 07:30:22;;;;;;;9.55;3.40;;;15.20;99.90;;;;;;5072875;28;20086;-77
2022/10/08 07:32:50;;;;;;;4.97;2.45;;;15.20;99.90;;;;;;5072853;28;20044;-75
2022/10/08 07:35:16;;;;;;;6.47;2.67;;;15.20;99.90;;;;;;5072790;28;20048;-75
2022/10/08 07:37:42;;;;;;;7.15;2.80;;;15.20;99.90;;;;;;5072414;28;20056;-74
2022/10/08 07:40:08;;;;;;;6.22;2.92;;;15.20;99.90;;;;;;5074364;28;20209;-74
2022/10/08 07:42:34;;;;;;;6.05;3.15;;;15.20;99.90;;;;;;5072803;28;20500;-77
2022/10/08 07:45:00;;;;;;;4.53;2.85;;;15.20;99.90;;;;;;5074035;28;20051;-76
2022/10/08 07:47:25;;;;;;;5.68;3.22;;;15.20;99.90;;;;;;5073095;28;20033;-76
2022/10/08 07:49:51;;;;;;;7.18;2.60;;;15.10;99.90;;;;;;5070688;28;20051;-77
2022/10/08 07:52:17;;;;;;;5.97;2.55;;;15.10;99.90;;;;;;5070528;28;20033;-77
2022/10/08 07:54:44;;;;;;;6.18;3.17;;;15.10;99.90;;;;;;5071569;28;20407;-77
2022/10/08 07:57:10;;;;;;;9.50;4.07;;;15.10;99.90;;;;;;5071702;28;20033;-77
2022/10/08 07:59:36;;;;;;;11.43;3.25;;;15.00;99.90;;;;;;5071198;28;20185;-78
2022/10/08 08:02:02;;;;;;;7.22;3.58;;;15.00;99.90;;;;;;5072058;28;20033;-76
2022/10/08 08:04:28;;;;;;;8.82;3.83;;;15.00;99.90;;;;;;5073644;28;20090;-76
2022/10/08 08:06:54;;;;;;;10.18;4.47;;;14.90;99.90;;;;;;5073664;28;20040;-76
2022/10/08 08:09:20;;;;;;;11.77;4.88;;;14.70;99.90;;;;;;5071660;28;20527;-76
2022/10/08 08:11:48;;;;;;;13.50;5.93;;;14.70;99.90;;;;;;5064894;28;20043;-76
2022/10/08 08:14:14;;;;;;;9.40;5.45;;;14.60;99.90;;;;;;5069497;28;20044;-74
2022/10/08 08:16:40;;;;;;;16.45;5.97;;;14.40;99.90;;;;;;5068945;28;20044;-77
2022/10/08 08:19:06;;;;;;;13.02;5.65;;;14.40;99.90;;;;;;5069076;28;20049;-75
2022/10/08 08:21:34;;;;;;;7.93;4.78;;;14.40;99.90;;;;;;5070355;28;20071;-76
2022/10/08 08:24:09;;;;;;;12.13;5.15;;;14.40;99.90;;;;;;5070389;28;20072;-74
2022/10/08 08:26:37;;;;;;;13.05;5.22;;;;;;;;;;5069058;28;20036;-72
2022/10/08 08:29:10;;;;;;;11.85;5.43;;;14.20;99.90;;;;;;5073124;28;20465;-73
2022/10/08 08:31:39;;;;;;;9.80;4.68;;;14.20;99.90;;;;;;5074336;28;20036;-76
2022/10/08 08:34:08;;;;;;;7.55;5.10;;;14.20;99.90;;;;;;5076434;28;20040;-73
2022/10/08 08:36:36;;;;;;;11.68;5.93;;;14.20;99.90;;;;;;5076174;28;20082;-76
2022/10/08 08:39:04;;;;;;;11.98;6.60;;;14.10;99.90;;;;;;5073692;28;20044;-73
2022/10/08 08:41:45;;;;;;;9.40;6.65;;;14.00;99.90;;;;;;5074506;28;20051;-74
2022/10/08 08:44:20;;;;;;;12.52;7.03;;;14.00;99.90;;;;;;5076310;28;20032;-73
2022/10/08 08:46:57;;;;;;;8.30;6.28;;;14.10;99.90;;;;;;5075323;28;20396;-77
2022/10/08 08:49:29;;;;;;;12.48;7.13;;;14.10;99.90;;;;;;5072779;28;20044;-73
2022/10/08 08:51:58;;;;;;;11.45;6.50;;;14.10;99.90;;;;;;5073502;28;20101;-71
2022/10/08 08:54:24;;;;;;;16.95;7.35;;;14.00;99.90;;;;;;5072778;28;20055;-69
2022/10/08 08:56:51;;;;;;;10.50;6.43;;;14.00;99.90;;;;;;5074313;28;20032;-72
2022/10/08 08:59:31;;;;;;;16.15;7.53;;;14.00;99.90;;;;;;5069197;28;20109;-76
2022/10/08 09:02:02;;;;;;;10.60;7.53;;;14.00;99.90;;;;;;5074061;28;20052;-73
2022/10/08 09:04:48;;;;;;;21.52;8.65;;;13.90;99.90;;;;;;5075754;28;20052;-71
2022/10/08 09:07:18;;;;;;;14.10;7.20;;;13.90;99.90;;;;;;5075087;28;20036;-76
2022/10/08 09:09:47;;;;;;;12.15;7.15;;;13.90;99.90;;;;;;5073463;28;20032;-72
2022/10/08 09:12:40;;;;;;;14.52;7.72;;;13.90;99.90;;;;;;5073371;28;20169;-71
2022/10/08 09:15:17;;;;;;;14.23;6.63;;;13.90;99.90;;;;;;5074803;28;20032;-71
2022/10/08 09:17:46;;;;;;;13.90;6.95;;;13.90;99.90;;;;;;5074602;28;20045;-71
2022/10/08 09:20:16;;;;;;;17.60;6.70;;;13.90;99.90;;;;;;5074503;28;20040;-71
2022/10/08 09:22:44;;;;;;;16.00;5.88;;;13.80;99.90;;;;;;5073142;28;20044;-70
2022/10/08 09:25:21;;;;;;;7.63;5.22;;;13.80;99.90;;;;;;5075122;28;20387;-73
2022/10/08 09:27:59;;;;;;;8.70;5.15;;;13.80;99.90;;;;;;5074580;28;20040;-76
2022/10/08 09:30:28;;;;;;;12.82;6.85;;;13.80;99.90;;;;;;5074621;28;20481;-71
2022/10/08 09:32:57;;;;;;;9.63;5.22;;;13.80;99.90;;;;;;5074226;28;20040;-71
2022/10/08 09:35:23;;;;;;;9.43;5.50;;;13.80;99.90;;;;;;5074500;28;20072;-71
2022/10/08 09:37:50;;;;;;;10.88;4.97;;;13.80;99.90;;;;;;5074245;28;20047;-71
2022/10/08 09:40:16;;;;;;;8.25;5.22;;;13.70;99.90;;;;;;5073249;28;20700;-71
2022/10/08 09:42:42;;;;;;;10.57;5.13;;;13.70;99.90;;;;;;5075471;28;20128;-71
2022/10/08 09:45:53;;;;;;;10.13;6.00;;;13.80;99.90;;;;;;5073274;28;20044;-72
2022/10/08 09:48:26;;;;;;;10.10;5.28;;;13.80;99.90;;;;;;5071744;28;20500;-75
2022/10/08 09:51:11;;;;;;;9.45;5.72;;;13.80;99.90;;;;;;5074231;28;20036;-73
2022/10/08 09:53:44;;;;;;;8.95;5.32;;;13.80;99.90;;;;;;5072117;28;20039;-71
2022/10/08 09:56:12;;;;;;;13.65;6.05;;;13.80;99.90;;;;;;5074294;28;20176;-72
2022/10/08 09:58:55;;;;;;;11.85;5.75;;;13.80;99.90;;;;;;5074136;28;20043;-72
2022/10/08 10:01:23;;;;;;;12.00;4.82;;;13.80;99.90;;;;;;5072593;28;20083;-71
2022/10/08 10:03:53;;;;;;;8.05;4.38;;;13.70;99.90;;;;;;5074373;28;20040;-73
2022/10/08 10:06:33;;;;;;;5.53;3.53;;;13.60;99.90;;;;;;5075667;28;20087;-76
2022/10/08 10:09:10;;;;;;;8.63;3.10;;;13.60;99.90;;;;;;5073119;28;20267;-71
2022/10/08 10:12:12;;;;;;;13.13;3.20;;;13.60;99.90;;;;;;5072312;28;20033;-71
2022/10/08 10:15:28;;;;;;;7.88;3.25;;;13.60;99.90;;;;;;5066067;28;20066;-73
2022/10/08 10:17:58;;;;;;;5.15;2.70;;;13.70;99.90;;;;;;5055643;28;20051;-71
2022/10/08 10:20:44;;;;;;;7.15;3.53;;;13.90;99.90;;;;;;5072261;28;20424;-71
2022/10/08 10:23:21;;;;;;;10.60;3.15;;;14.00;99.90;;;;;;5070986;28;20032;-71
2022/10/08 10:25:58;;;;;;;7.60;3.35;;;14.00;99.90;;;;;;5072966;28;20060;-72
2022/10/08 10:28:45;;;;;;;8.65;3.28;;;14.10;99.90;;;;;;5071928;28;20076;-72
2022/10/08 10:31:24;;;;;;;7.15;3.20;;;14.20;99.90;;;;;;5072840;28;20032;-76
2022/10/08 10:33:55;;;;;;;8.82;4.03;;;14.20;99.90;;;;;;5072531;28;20122;-71
2022/10/08 10:36:25;;;;;;;10.52;3.42;;;14.40;99.90;;;;;;5071858;28;20040;-73
2022/10/08 10:39:02;;;;;;;10.52;3.97;;;14.30;99.90;;;;;;5070998;28;20131;-70
2022/10/08 10:42:09;;;;;;;7.20;3.53;;;14.40;99.90;;;;;;5074414;28;20078;-70
2022/10/08 10:45:02;;;;;;;13.20;3.45;;;14.40;99.90;;;;;;5049827;28;20041;-69
2022/10/08 10:47:31;;;;;;;5.18;3.05;;;14.40;99.90;;;;;;5053064;28;20029;-70
2022/10/08 10:50:00;;;;;;;5.55;3.50;;;14.40;99.90;;;;;;5052628;28;20041;-70
2022/10/08 10:52:44;;;;;;;9.55;3.10;;;14.40;99.90;;;;;;5052318;28;20527;-70
2022/10/08 10:55:29;;;;;;;11.07;5.00;;;14.40;99.90;;;;;;5050521;28;20037;-70
2022/10/08 10:58:13;;;;;;;13.45;3.97;;;14.40;99.90;;;;;;5052824;28;20059;-70
2022/10/08 11:01:02;;;;;;;6.65;3.53;;;14.30;99.90;;;;;;5054307;28;20447;-69
2022/10/08 11:03:46;;;;;;;7.05;3.88;;;14.30;99.90;;;;;;5054184;28;20449;-70
2022/10/08 11:06:20;;;;;;;8.02;3.20;;;14.40;99.90;;;;;;5052409;28;20065;-71
2022/10/08 11:09:18;;;;;;;11.30;3.88;;;14.40;99.90;;;;;;5051611;28;20060;-70
2022/10/08 11:11:48;;;;;;;10.52;3.63;;;14.50;99.90;;;;;;5052889;28;20153;-74
2022/10/08 11:14:36;;;;;;;8.38;3.33;;;14.60;99.90;;;;;;5052333;28;20037;-72
2022/10/08 11:17:05;;;;;;;6.70;3.03;;;14.60;99.90;;;;;;5051415;28;20078;-70
2022/10/08 11:20:05;;;;;;;7.32;3.55;;;14.60;99.90;;;;;;5067976;28;20097;-72
2022/10/08 11:22:46;;;;;;;7.80;3.17;;;14.60;99.90;;;;;;5072232;28;20028;-73
2022/10/08 11:25:32;;;;;;;7.93;3.33;;;14.70;99.90;;;;;;5071409;28;20085;-75
2022/10/08 11:27:57;;;;;;;8.30;3.20;;;14.80;99.90;;;;;;5069709;28;20059;-73
2022/10/08 11:30:53;;;;;;;6.35;3.17;;;14.80;99.90;;;;;;5071821;28;20032;-70
2022/10/08 11:33:20;;;;;;;10.40;4.47;;;14.90;99.90;;;;;;5070452;28;20048;-72
2022/10/08 11:36:07;;;;;;;5.57;2.95;;;14.90;99.90;;;;;;5069767;28;20047;-76
2022/10/08 11:38:36;;;;;;;4.82;2.75;;;15.00;99.90;;;;;;5069939;28;20472;-73
2022/10/08 11:41:28;;;;;;;5.78;2.53;;;15.20;99.90;;;;;;5070389;28;20508;-70
2022/10/08 11:44:01;;;;;;;7.63;3.03;;;15.30;99.90;;;;;;5071559;28;20036;-72
2022/10/08 11:46:32;;;;;;;6.22;2.35;;;15.40;99.90;;;;;;5070448;28;20090;-72
2022/10/08 11:49:21;;;;;;;5.45;2.20;;;15.50;99.90;;;;;;5060726;28;20036;-71
2022/10/08 11:51:52;;;;;;;9.27;2.78;;;15.50;99.90;;;;;;5066261;28;20492;-71
2022/10/08 11:54:33;;;;;;;5.97;1.88;;;15.60;99.90;;;;;;5062633;28;20752;-75
2022/10/08 11:57:19;;;;;;;7.57;2.60;;;15.50;99.90;;;;;;5066273;28;20056;-72
2022/10/08 11:59:58;;;;;;;7.95;2.50;;;15.50;99.90;;;;;;5067664;28;20480;-73
2022/10/08 12:02:35;;;;;;;9.23;2.83;;;15.80;99.90;;;;;;5067542;28;20826;-73
2022/10/08 12:05:22;;;;;;;5.18;2.70;;;15.90;99.90;;;;;;5069984;28;20069;-72
2022/10/08 12:07:54;;;;;;;7.00;2.53;;;16.00;99.90;;;;;;5069343;28;20063;-72
2022/10/08 12:10:35;;;;;;;12.75;2.63;;;16.10;99.90;;;;;;5070986;28;20045;-74
2022/10/08 12:13:21;;;;;;;5.32;2.55;;;16.00;99.90;;;;;;5072346;28;20036;-74
2022/10/08 12:15:49;;;;;;;3.80;2.25;;;16.00;99.90;;;;;;5071354;28;20044;-70
2022/10/08 12:18:24;;;;;;;3.85;1.98;;;15.70;99.90;;;;;;5070196;28;20064;-75
2022/10/08 12:21:14;;;;;;;4.35;2.33;;;15.60;99.90;;;;;;5069601;28;20060;-77
2022/10/08 12:23:40;;;;;;;6.72;2.20;;;15.70;99.90;;;;;;5068459;28;20039;-78
2022/10/08 12:26:07;;;;;;;4.40;1.95;;;15.70;99.90;;;;;;5069561;28;20155;-73
2022/10/08 12:28:37;;;;;;;10.02;2.67;;;15.70;99.90;;;;;;5070105;28;20526;-72
2022/10/08 12:31:22;;;;;;;7.22;2.55;;;15.80;99.90;;;;;;5070281;28;20044;-72
2022/10/08 12:34:09;;;;;;;6.07;2.05;;;15.70;99.90;;;;;;5069580;28;20043;-72
2022/10/08 12:36:54;;;;;;;8.35;1.88;;;15.70;99.90;;;;;;5070106;28;20036;-72
2022/10/08 12:39:34;;;;;;;4.35;2.08;;;15.70;99.90;;;;;;5070657;28;20047;-72
2022/10/08 12:42:06;;;;;;;9.30;3.42;;;15.70;99.90;;;;;;5070094;28;20036;-72
2022/10/08 12:44:51;;;;;;;3.80;1.92;;;15.50;99.90;;;;;;5071458;28;20060;-72
2022/10/08 12:47:39;;;;;;;7.43;2.00;;;15.50;99.90;;;;;;5069639;28;20036;-72
2022/10/08 12:50:35;;;;;;;8.35;1.90;;;15.50;99.90;;;;;;5066245;28;20530;-72
2022/10/08 12:53:03;;;;;;;4.55;1.92;;;15.50;99.90;;;;;;5072439;28;20036;-72
2022/10/08 12:55:32;;;;;;;8.18;1.70;;;15.50;99.90;;;;;;5073007;28;20041;-73
2022/10/08 12:57:59;;;;;;;11.90;2.35;;;15.50;99.90;;;;;;5070830;28;20044;-72
2022/10/08 13:00:30;;;;;;;2.78;1.75;;;15.50;99.90;;;;;;5071135;28;20052;-72
2022/10/08 13:03:16;;;;;;;5.47;2.50;;;15.70;99.90;;;;;;5069499;28;20039;-72
2022/10/08 13:05:43;;;;;;;6.50;2.00;;;15.60;99.90;;;;;;5070993;28;20044;-72
2022/10/08 13:08:38;;;;;;;4.25;1.92;;;15.60;99.90;;;;;;5070210;28;20056;-72
2022/10/08 13:11:14;;;;;;;4.28;1.42;;;15.60;99.90;;;;;;5069839;28;20033;-72
2022/10/08 13:13:49;;;;;;;10.00;2.08;;;15.60;99.90;;;;;;5070155;28;20474;-72